»·PEaware :: TPX764 KSAN-KLAS

TPX764 :: KSAN-KLAS

FLIGHT INFORMATION

Flight Status: Arrived
Operator: ATP Experience
More flights by this operator :: More flights under this callsign
Pilot: Dave P. (45)
Aircraft: BOEING 737-800
(B738)
More flights by this aircraft type
Origin: KSAN San Diego Intl-Lindbergh
United States
Destination: KLAS McCarran Intl
United States
More flights between these airports :: More routes between these airports
Route: PADRZ2 CHKNN SEBBY YELAH MISEN KEPEC6
File this flight plan on PilotEdge
Remarks: RMK / SIMBRIEF
Altitude:
(Current/Filed)
29,000ft
Speed:
(Current/Filed)
455kts
Departed: 05-Jan-20 10:38 AM
Arrived: 05-Jan-20 11:29 AM
Distance/Time
Traveled:
225nm/0:51
Distance/Time
To Go:
Arrived

Flight Plot

Page will automatically refresh every two minutes.

Flight plan parsing failed; only flown route is shown


Map Options




Map Legend


Flown Route
Filed Route
Departure Airport
Arrival Airport
Navaid (VOR, NDB)
Fix

Horizontal Profiles

Position Reports

Time Latitude Longitude Heading Altitude Ground
Speed
05-Jan-20 10:14 32.732498 -117.195465 311 23ft 0kts
05-Jan-20 10:15 32.732498 -117.195465 311 23ft 0kts
05-Jan-20 10:17 32.732498 -117.195465 311 23ft 0kts
05-Jan-20 10:17 32.732498 -117.195465 311 23ft 0kts
05-Jan-20 10:18 32.732498 -117.195465 311 23ft 0kts
05-Jan-20 10:19 32.732498 -117.195465 311 23ft 0kts
05-Jan-20 10:20 32.732498 -117.195465 311 23ft 0kts
05-Jan-20 10:21 32.732498 -117.195465 311 23ft 0kts
05-Jan-20 10:22 32.732498 -117.195465 311 23ft 0kts
05-Jan-20 10:23 32.732498 -117.195465 311 23ft 0kts
05-Jan-20 10:24 32.732498 -117.195465 311 23ft 0kts
05-Jan-20 10:25 32.732498 -117.195465 311 23ft 0kts
05-Jan-20 10:26 32.732498 -117.195465 311 23ft 0kts
05-Jan-20 10:27 32.732498 -117.195465 311 23ft 0kts
05-Jan-20 10:28 32.732498 -117.195465 311 23ft 0kts
05-Jan-20 10:29 32.732267 -117.195155 311 23ft 0kts
05-Jan-20 10:30 32.732267 -117.195155 311 23ft 0kts
05-Jan-20 10:31 32.732267 -117.195155 311 23ft 0kts
05-Jan-20 10:32 32.733434 -117.193538 95 23ft 16kts
05-Jan-20 10:33 32.731987 -117.187457 105 23ft 18kts
05-Jan-20 10:34 32.730477 -117.181233 106 23ft 19kts
05-Jan-20 10:35 32.729783 -117.175767 74 23ft 15kts
05-Jan-20 10:36 32.730600 -117.177479 286 23ft 29kts
05-Jan-20 10:37 32.739977 -117.217316 289 1272ft 161kts
05-Jan-20 10:38 32.770478 -117.270823 306 3123ft 239kts
05-Jan-20 10:39 32.813047 -117.339641 308 6229ft 267kts
05-Jan-20 10:40 32.859341 -117.410848 307 9491ft 277kts
05-Jan-20 10:41 32.908706 -117.487619 305 11713ft 321kts
05-Jan-20 10:42 32.964797 -117.574794 304 14520ft 339kts
05-Jan-20 10:43 33.022118 -117.664446 303 15336ft 345kts
05-Jan-20 10:44 33.083426 -117.750244 313 18318ft 357kts
05-Jan-20 10:45 33.162295 -117.826871 324 20755ft 383kts
05-Jan-20 10:46 33.273777 -117.816331 19 22722ft 449kts
05-Jan-20 10:47 33.394496 -117.787177 353 24324ft 448kts
05-Jan-20 10:48 33.521008 -117.785247 353 26025ft 462kts
05-Jan-20 10:49 33.651229 -117.783371 353 27557ft 474kts
05-Jan-20 10:50 33.783494 -117.781459 352 29295ft 475kts
05-Jan-20 10:51 33.912080 -117.779581 352 29404ft 476kts
05-Jan-20 10:52 34.044351 -117.776325 0 29396ft 484kts
05-Jan-20 10:53 34.159734 -117.688186 45 29401ft 510kts
05-Jan-20 10:54 34.253333 -117.558824 46 29399ft 511kts
05-Jan-20 10:55 34.348142 -117.431256 45 29429ft 511kts
05-Jan-20 10:56 34.443750 -117.303060 45 29454ft 512kts
05-Jan-20 10:57 34.538894 -117.174640 45 29468ft 513kts
05-Jan-20 10:58 34.634032 -117.045700 45 29463ft 513kts
05-Jan-20 10:59 34.729340 -116.916046 45 29444ft 514kts
05-Jan-20 11:00 34.824368 -116.786298 45 29408ft 515kts
05-Jan-20 11:01 34.919088 -116.656839 45 28530ft 501kts
05-Jan-20 11:02 35.010200 -116.531345 44 26487ft 488kts
05-Jan-20 11:03 35.098855 -116.408713 44 24655ft 471kts
05-Jan-20 11:04 35.189746 -116.293994 40 22746ft 463kts
05-Jan-20 11:05 35.277869 -116.183356 40 21056ft 446kts
05-Jan-20 11:06 35.362883 -116.076409 40 19412ft 430kts
05-Jan-20 11:07 35.445128 -115.972846 40 17861ft 415kts
05-Jan-20 11:08 35.524032 -115.873257 41 16205ft 401kts
05-Jan-20 11:09 35.599281 -115.777348 40 15004ft 375kts
05-Jan-20 11:10 35.668932 -115.688413 40 14094ft 348kts
05-Jan-20 11:11 35.734663 -115.604475 39 13064ft 333kts
05-Jan-20 11:12 35.816367 -115.572632 356 13008ft 308kts
05-Jan-20 11:13 35.901682 -115.567458 353 13003ft 306kts
05-Jan-20 11:14 35.983245 -115.538186 42 12782ft 341kts
05-Jan-20 11:15 36.013189 -115.428088 65 11565ft 328kts
05-Jan-20 11:16 36.027930 -115.322781 96 10409ft 306kts
05-Jan-20 11:17 36.019997 -115.221964 96 9221ft 285kts
05-Jan-20 11:18 36.013428 -115.126853 96 8381ft 265kts
05-Jan-20 11:19 36.008162 -115.043865 95 8023ft 223kts
05-Jan-20 11:20 36.003707 -114.968350 95 7409ft 217kts
05-Jan-20 11:21 36.000235 -114.894892 80 6128ft 212kts
05-Jan-20 11:22 36.047140 -114.869158 2 4871ft 193kts
05-Jan-20 11:23 36.072170 -114.918268 276 4525ft 190kts
05-Jan-20 11:24 36.073768 -114.983105 269 4398ft 181kts
05-Jan-20 11:25 36.073743 -115.042378 269 3502ft 166kts
05-Jan-20 11:26 36.073696 -115.097038 268 2658ft 155kts
05-Jan-20 11:27 36.073684 -115.141368 269 2189ft 43kts
05-Jan-20 11:28 36.075344 -115.146691 4 2189ft 9kts
05-Jan-20 11:29 36.078485 -115.146508 94 2189ft 10kts
05-Jan-20 11:30 36.078267 -115.141728 90 2189ft 15kts
05-Jan-20 11:31 36.079971 -115.138602 334 2189ft 10kts
05-Jan-20 11:32 36.080462 -115.138798 345 2189ft 0kts
05-Jan-20 11:33 36.080462 -115.138798 345 2189ft 0kts

Navigation Log

Ident Type
Flight plan parsing failed, navigation log unavailable